Data for 06/01/2016

Time Sea-Level Adjusted Pressure Absolute Pressure Temperature Relative Humidity Dew Point   
(mb) (inHg) (mb) (inHg) (C) (F) (%) (C) (F)
00:05 1022 30.18 851 25.13 7.1 44.8 58 -0.6 31
00:10 1022 30.18 851 25.13 7.1 44.8 58 -0.5 31.1
00:15 1022 30.18 851 25.13 6.9 44.4 59 -0.4 31.2
00:20 1022 30.18 851 25.13 6.7 44.1 60 -0.5 31
00:25 1022 30.18 851 25.13 6.6 44 59 -0.7 30.8
00:30 1022 30.18 851 25.13 6.7 44.1 59 -0.7 30.7
00:35 1022 30.18 851 25.13 6.8 44.3 59 -0.7 30.7
00:40 1022 30.18 851 25.13 6.9 44.5 58 -0.7 30.7
00:45 1022 30.18 851 25.13 6.9 44.4 59 -0.6 30.9
00:50 1022 30.18 851 25.13 6.9 44.4 59 -0.6 31
00:55 1022 30.18 851 25.13 6.9 44.4 58 -0.8 30.6
01:00 1022 30.18 851 25.13 7 44.6 58 -0.7 30.7
01:05 1022 30.18 851 25.13 7 44.6 58 -0.7 30.7
01:10 1022 30.18 851 25.13 7 44.6 59 -0.6 31
01:15 1022 30.18 851 25.13 6.8 44.2 59 -0.6 30.9
01:20 1022 30.18 851 25.13 6.7 44 59 -0.7 30.8
01:25 1022 30.18 851 25.13 6.7 44.1 59 -0.7 30.8
01:30 1021 30.15 851 25.13 6.7 44 59 -0.8 30.5
01:35 1021 30.15 851 25.13 6.7 44 58 -0.9 30.4
01:40 1021 30.15 851 25.13 6.6 43.8 59 -1 30.2
01:45 1021 30.15 851 25.13 6.7 44 58 -1 30.1
01:50 1021 30.15 851 25.13 7 44.6 57 -0.9 30.3
01:55 1021 30.15 851 25.13 7.1 44.7 57 -0.8 30.5
02:00 1021 30.15 850 25.1 7 44.7 57 -0.9 30.3
02:05 1021 30.15 850 25.1 7 44.5 58 -0.8 30.5
02:10 1021 30.15 851 25.13 6.7 44.1 59 -0.7 30.8
02:15 1021 30.15 851 25.13 6.5 43.6 60 -0.6 30.9
02:20 1021 30.15 851 25.13 6.3 43.3 60 -0.8 30.6
02:25 1021 30.15 851 25.13 6.3 43.3 60 -1 30.2
02:30 1021 30.15 851 25.13 6.3 43.4 59 -1 30.2
02:35 1021 30.15 850 25.1 6.2 43.2 58 -1.3 29.7
02:40 1021 30.15 850 25.1 6.3 43.4 58 -1.4 29.5
02:45 1021 30.15 850 25.1 6.5 43.7 58 -1.2 29.9
02:50 1021 30.15 850 25.1 6.6 43.9 57 -1.3 29.7
02:55 1021 30.15 850 25.1 6.6 43.9 57 -1.2 29.9
03:00 1021 30.15 850 25.1 6.5 43.7 57 -1.3 29.7
03:05 1021 30.15 850 25.1 6.3 43.3 59 -1.2 29.8
03:10 1021 30.15 850 25.1 6.3 43.3 58 -1.4 29.4
03:15 1021 30.15 850 25.1 6.3 43.4 58 -1.2 29.8
03:20 1021 30.15 850 25.1 6.1 42.9 59 -1.3 29.7
03:25 1021 30.15 850 25.1 5.8 42.5 60 -1.3 29.7
03:30 1021 30.15 850 25.1 5.6 42.2 61 -1.3 29.7
03:35 1021 30.15 850 25.1 5.7 42.3 60 -1.4 29.5
03:40 1021 30.15 850 25.1 5.8 42.5 60 -1.3 29.7
03:45 1021 30.15 850 25.1 5.7 42.3 61 -1.3 29.7
03:50 1021 30.15 850 25.1 5.7 42.2 60 -1.5 29.4
03:55 1021 30.15 850 25.1 5.6 42.1 61 -1.4 29.5
04:00 1021 30.15 850 25.1 5.6 42 61 -1.3 29.7
04:05 1021 30.15 850 25.1 5.5 41.8 61 -1.5 29.3
04:10 1021 30.15 850 25.1 5.5 41.9 62 -1.2 29.8
04:15 1021 30.15 850 25.1 5.6 42 61 -1.3 29.7
04:20 1021 30.15 850 25.1 5.7 42.3 61 -1.3 29.7
04:25 1021 30.15 850 25.1 5.6 42.1 61 -1.4 29.5
04:30 1021 30.15 850 25.1 5.6 42.2 61 -1.2 29.9
04:35 1021 30.15 850 25.1 5.5 41.9 60 -1.6 29.1
04:40 1021 30.15 850 25.1 5.6 42.2 60 -1.5 29.4
04:45 1021 30.15 850 25.1 5.5 41.8 63 -1.1 30
04:50 1021 30.15 850 25.1 4.8 40.6 66 -1 30.2
04:55 1021 30.15 850 25.1 4.3 39.8 67 -1.2 29.9
05:00 1021 30.15 850 25.1 4.3 39.8 68 -1 30.2
05:05 1021 30.15 850 25.1 4.4 39.9 66 -1.3 29.6
05:10 1021 30.15 850 25.1 4.7 40.5 65 -1.3 29.7
05:15 1021 30.15 850 25.1 5 41.1 64 -1.1 30
05:20 1021 30.15 850 25.1 5.1 41.2 63 -1.3 29.7
05:25 1021 30.15 850 25.1 5.4 41.6 62 -1.3 29.7
05:30 1021 30.15 850 25.1 5.5 41.9 62 -1.2 29.8
05:35 1021 30.15 850 25.1 5.6 42.1 61 -1.2 29.9
05:40 1021 30.15 850 25.1 5.7 42.3 61 -1.2 29.8
05:45 1021 30.15 850 25.1 5.9 42.6 60 -1.2 29.9
05:50 1021 30.15 850 25.1 6 42.8 61 -1 30.1
05:55 1021 30.15 850 25.1 6.2 43.1 59 -1.3 29.7
06:00 1021 30.15 850 25.1 6.4 43.5 59 -1.1 30
06:05 1021 30.15 850 25.1 6.7 44 58 -0.9 30.4
06:10 1021 30.15 850 25.1 7.1 44.7 57 -0.9 30.3
06:15 1021 30.15 850 25.1 7.4 45.3 56 -0.8 30.5
06:20 1021 30.15 850 25.1 7.7 45.8 55 -0.8 30.6
06:25 1021 30.15 850 25.1 8.1 46.5 54 -0.8 30.6
06:30 1021 30.15 850 25.1 8.5 47.3 53 -0.6 30.9
06:35 1021 30.15 850 25.1 9 48.2 51 -0.6 30.9
06:40 1021 30.15 850 25.1 9.3 48.7 48 -1 30.2
06:45 1021 30.15 850 25.1 9.4 49 48 -0.9 30.4
06:50 1021 30.15 850 25.1 9.9 49.7 48 -0.7 30.8
06:55 1021 30.15 850 25.1 10.3 50.6 46 -0.8 30.5
07:00 1021 30.15 850 25.1 10.8 51.4 44 -0.9 30.4
07:05 1021 30.15 850 25.1 11.6 52.8 42 -0.8 30.5
07:10 1021 30.15 850 25.1 11.7 53 42 -0.9 30.4
07:15 1021 30.15 850 25.1 11.6 52.9 43 -0.5 31.1
07:20 1021 30.15 850 25.1 11.4 52.5 44 -0.4 31.3
07:25 1021 30.15 850 25.1 11.3 52.3 43 -0.7 30.7
07:30 1021 30.15 850 25.1 11.8 53.2 41 -1.1 30.1
07:35 1021 30.15 850 25.1 11.7 53.1 40 -1.4 29.5
07:40 1021 30.15 850 25.1 11.9 53.4 40 -1.1 29.9
07:45 1021 30.15 850 25.1 12.5 54.5 38 -1.5 29.4
07:50 1021 30.15 850 25.1 13 55.5 38 -1 30.2
07:55 1021 30.15 850 25.1 13.2 55.7 37 -1.1 30
08:00 1021 30.15 850 25.1 13.2 55.7 37 -1.3 29.7
08:05 1021 30.15 850 25.1 13.8 56.8 36 -0.8 30.5
08:10 1021 30.15 850 25.1 13.3 56 37 -1.2 29.9
08:15 1021 30.15 850 25.1 13.4 56.1 37 -0.9 30.4
08:20 1021 30.15 850 25.1 13.3 55.9 37 -1 30.2
08:25 1021 30.15 850 25.1 14.1 57.4 34 -1.3 29.6
08:30 1021 30.15 850 25.1 14.1 57.4 35 -1.2 29.8
08:35 1021 30.15 850 25.1 14.9 58.8 32 -1.7 28.9
08:40 1021 30.15 850 25.1 15 59.1 33 -0.9 30.3
08:45 1021 30.15 850 25.1 15.7 60.2 33 -0.4 31.3
08:50 1020 30.12 850 25.1 15.6 60.2 33 -0.7 30.8
08:55 1020 30.12 850 25.1 15.6 60 34 -0.3 31.5
09:00 1020 30.12 850 25.1 15.8 60.4 34 -0 32
09:05 1020 30.12 850 25.1 15.6 60 33 -0.6 30.9
09:10 1020 30.12 850 25.1 16.2 61.1 33 0.2 32.3
09:15 1020 30.12 850 25.1 15.7 60.2 34 -0.1 31.8
09:20 1020 30.12 850 25.1 15.1 59.1 36 0.1 32.2
09:25 1020 30.12 850 25.1 15.6 60 34 -0.2 31.6
09:30 1020 30.12 849 25.07 15.7 60.2 35 0.5 32.8
09:35 1020 30.12 849 25.07 15.6 60.1 35 0.5 32.9
09:40 1020 30.12 849 25.07 16 60.7 35 0.6 33.1
09:45 1020 30.12 849 25.07 16.6 61.9 33 0.3 32.6
09:50 1020 30.12 849 25.07 16.7 62.1 32 -0.1 31.9
09:55 1020 30.12 849 25.07 16.7 62 32 -0.1 31.8
10:00 1020 30.12 849 25.07 17.5 63.4 30 -0.1 31.8
10:05 1020 30.12 849 25.07 17.1 62.7 33 0.6 33.1
10:10 1020 30.12 849 25.07 17.4 63.2 34 1.4 34.4
10:15 1020 30.12 849 25.07 17.9 64.2 32 1.2 34.2
10:20 1020 30.12 849 25.07 18.3 64.9 31 0.8 33.4
10:25 1020 30.12 849 25.07 18 64.3 33 1.4 34.6
10:30 1020 30.12 849 25.07 16.9 62.4 32 0.4 32.7
10:35 1020 30.12 849 25.07 17.4 63.4 32 0.8 33.5
10:40 1020 30.12 849 25.07 18.5 65.4 30 0.7 33.2
10:45 1020 30.12 849 25.07 18.4 65 30 0.4 32.8
10:50 1020 30.12 849 25.07 17.6 63.7 31 0.4 32.7
10:55 1020 30.12 849 25.07 18.2 64.7 29 0.1 32.1
11:00 1020 30.12 849 25.07 17.8 64 32 1.1 34
11:05 1020 30.12 849 25.07 18.4 65.1 28 -0.1 31.9
11:10 1020 30.12 849 25.07 19.1 66.5 29 0.6 33.1
11:15 1019 30.09 849 25.07 18.5 65.3 32 1.6 34.9
11:20 1019 30.09 849 25.07 18.6 65.5 28 0.1 32.1
11:25 1019 30.09 849 25.07 19.9 67.7 27 0.5 33
11:30 1019 30.09 849 25.07 20.7 69.3 26 0.7 33.3
11:35 1019 30.09 849 25.07 20.5 68.9 25 -0.1 31.8
11:40 1019 30.09 848 25.04 20.6 69.1 26 0.7 33.2
11:45 1019 30.09 848 25.04 19.9 67.8 27 0.6 33.1
11:50 1019 30.09 848 25.04 20.2 68.3 27 0.6 33
11:55 1019 30.09 848 25.04 20.7 69.2 25 0.2 32.4
12:00 1019 30.09 848 25.04 20.8 69.4 24 -0.2 31.6
12:05 1019 30.09 848 25.04 20.9 69.7 25 0.2 32.3
12:10 1019 30.09 848 25.04 21.1 70 23 -0.4 31.3
12:15 1019 30.09 848 25.04 20.3 68.5 26 0.5 32.9
12:20 1019 30.09 848 25.04 20.1 68.2 26 0.4 32.6
12:25 1019 30.09 848 25.04 21.2 70.1 24 -0.2 31.7
12:30 1019 30.09 848 25.04 21.6 70.9 23 -0.1 31.8
12:35 1019 30.09 848 25.04 22.3 72.1 22 -0.1 31.8
12:40 1019 30.09 848 25.04 21.6 71 25 0.7 33.3
12:45 1019 30.09 848 25.04 21.4 70.5 25 0.7 33.3
12:50 1019 30.09 848 25.04 20.8 69.4 25 0.3 32.5
12:55 1018 30.06 848 25.04 21.2 70.2 24 -0.2 31.6
13:00 1018 30.06 848 25.04 21.1 70 24 0 32.1
13:05 1018 30.06 848 25.04 21.7 71 24 0.3 32.5
13:10 1018 30.06 848 25.04 22.1 71.7 24 0.7 33.3
13:15 1018 30.06 848 25.04 21.8 71.3 25 0.9 33.7
13:20 1018 30.06 848 25.04 20.9 69.6 25 0.6 33
13:25 1018 30.06 848 25.04 21.8 71.2 23 -0 32
13:30 1018 30.06 848 25.04 22.7 72.9 22 0.1 32.1
13:35 1018 30.06 847 25.01 22.4 72.2 22 -0.3 31.4
13:40 1018 30.06 847 25.01 22.5 72.5 21 -0.4 31.3
13:45 1018 30.06 847 25.01 22.9 73.3 20 -1.2 29.9
13:50 1018 30.06 847 25.01 23 73.3 21 -0.5 31.1
13:55 1018 30.06 847 25.01 23 73.4 20 -1.1 30.1
14:00 1018 30.06 847 25.01 22.6 72.8 21 -0.6 30.8
14:05 1018 30.06 847 25.01 22.7 72.9 20 -1 30.2
14:10 1018 30.06 847 25.01 23.4 74 19 -1.2 29.9
14:15 1018 30.06 847 25.01 23.6 74.4 20 -0.2 31.6
14:20 1018 30.06 847 25.01 23 73.4 20 -1.1 30
14:25 1018 30.06 847 25.01 22.9 73.3 20 -0.9 30.4
14:30 1018 30.06 847 25.01 23.7 74.6 19 -1.1 30.1
14:35 1018 30.06 847 25.01 23.9 75 19 -1.3 29.7
14:40 1018 30.06 847 25.01 23.6 74.5 20 -0.6 31
14:45 1018 30.06 847 25.01 23 73.4 20 -0.8 30.6
14:50 1018 30.06 847 25.01 22.9 73.3 20 -0.9 30.4
14:55 1018 30.06 847 25.01 23.4 74.2 20 -0.8 30.6
15:00 1017 30.03 847 25.01 24.3 75.7 19 -0.4 31.3
15:05 1017 30.03 847 25.01 24.5 76 20 0.1 32.2
15:10 1017 30.03 847 25.01 23.8 74.9 20 -0.5 31.1
15:15 1017 30.03 846 24.98 23.6 74.4 20 -0.8 30.5
15:20 1017 30.03 846 24.98 22.6 72.6 21 -0.7 30.7
15:25 1017 30.03 846 24.98 22.9 73.1 21 -0.6 30.9
15:30 1017 30.03 846 24.98 23.2 73.7 21 -0.4 31.3
15:35 1017 30.03 846 24.98 23.2 73.7 21 -0.3 31.4
15:40 1017 30.03 846 24.98 23.4 74.2 20 -0.6 30.9
15:45 1017 30.03 846 24.98 23.5 74.4 20 -0.7 30.7
15:50 1017 30.03 846 24.98 23.3 73.9 19 -1.4 29.5
15:55 1017 30.03 846 24.98 23.5 74.2 19 -1.3 29.7
16:00 1017 30.03 846 24.98 23.9 75 19 -1.1 30.1
16:05 1017 30.03 846 24.98 23.6 74.4 19 -1.4 29.5
16:10 1017 30.03 846 24.98 23.6 74.5 18 -1.6 29.1
16:15 1017 30.03 846 24.98 23.5 74.2 20 -0.8 30.5
16:20 1017 30.03 846 24.98 22.9 73.2 20 -1.1 30
16:25 1017 30.03 846 24.98 23.3 73.9 18 -1.9 28.5
16:30 1017 30.03 846 24.98 24.1 75.4 18 -1.6 29.2
16:35 1017 30.03 846 24.98 24.6 76.2 17 -1.7 29
16:40 1017 30.03 846 24.98 24.9 76.8 18 -0.9 30.4
16:45 1017 30.03 846 24.98 24.6 76.2 18 -1.3 29.7
16:50 1017 30.03 846 24.98 24.5 76 18 -1.4 29.5
16:55 1017 30.03 846 24.98 24.3 75.7 18 -1 30.2
17:00 1016 30 846 24.98 24.6 76.3 15 -3.2 26.2
17:05 1016 30 846 24.98 24.4 76 17 -2.2 28.1
17:10 1016 30 846 24.98 24.3 75.7 18 -1.7 29
17:15 1016 30 846 24.98 24 75.1 19 -0.7 30.8
17:20 1016 30 846 24.98 24 75.2 17 -2.2 28.1
17:25 1016 30 846 24.98 24.9 76.7 17 -1.3 29.7
17:30 1016 30 845 24.95 25.1 77.2 14 -3.9 24.9
17:35 1016 30 845 24.95 25.3 77.6 14 -4.3 24.3
17:40 1016 30 845 24.95 25.2 77.4 14 -3.8 25.2
17:45 1016 30 845 24.95 24.9 76.7 14 -4.2 24.4
17:50 1016 30 845 24.95 24.7 76.5 14 -4.2 24.5
17:55 1016 30 845 24.95 24.4 76 15 -3.7 25.3
18:00 1016 30 845 24.95 23.6 74.5 16 -3.6 25.5
18:05 1016 30 845 24.95 23.7 74.7 17 -3 26.6
18:10 1016 30 845 24.95 23.6 74.4 15 -4 24.8
18:15 1016 30 845 24.95 23.5 74.2 15 -4.1 24.6
18:20 1016 30 845 24.95 23.1 73.5 16 -4.2 24.4
18:25 1016 30 845 24.95 22.8 73 16 -3.8 25.2
18:30 1016 30 845 24.95 22.7 72.9 17 -3.7 25.4
18:35 1016 30 845 24.95 22.8 73.1 17 -3.1 26.4
18:40 1016 30 845 24.95 22.8 73 18 -2.4 27.7
18:45 1016 30 846 24.98 22.7 72.8 19 -1.8 28.8
18:50 1017 30.03 846 24.98 22.5 72.4 20 -1.7 28.9
18:55 1017 30.03 846 24.98 22.2 71.9 22 -0.5 31.1
19:00 1017 30.03 846 24.98 21.7 71.1 21 -1.1 30.1
19:05 1017 30.03 846 24.98 21.6 70.9 19 -2.8 26.9
19:10 1017 30.03 846 24.98 21.8 71.3 19 -2.9 26.8
19:15 1017 30.03 846 24.98 21.7 71.1 21 -1.4 29.5
19:20 1017 30.03 846 24.98 21.5 70.7 23 -0.5 31.2
19:25 1017 30.03 846 24.98 21.2 70.1 23 -0.5 31.1
19:30 1017 30.03 846 24.98 21.2 70.2 22 -1.5 29.4
19:35 1017 30.03 846 24.98 21.2 70.2 21 -1.5 29.3
19:40 1017 30.03 847 25.01 21 69.8 20 -2.5 27.4
19:45 1017 30.03 847 25.01 21 69.7 20 -2.7 27.1
19:50 1017 30.03 847 25.01 21 69.7 20 -2.8 26.9
19:55 1017 30.03 847 25.01 21.1 70.1 20 -2.7 27.2
20:00 1017 30.03 847 25.01 21 69.7 20 -2.6 27.3
20:05 1017 30.03 847 25.01 20.9 69.6 21 -2.3 27.9
20:10 1017 30.03 846 24.98 20.8 69.4 22 -1.7 29
20:15 1017 30.03 846 24.98 20.6 69 22 -1.9 28.6
20:20 1017 30.03 846 24.98 20.5 69 24 -0.8 30.6
20:25 1017 30.03 846 24.98 20 67.9 26 -0 31.9
20:30 1017 30.03 847 25.01 19.5 67.1 27 0.3 32.5
20:35 1018 30.06 847 25.01 19.4 66.9 27 -0.1 31.9
20:40 1018 30.06 847 25.01 19.5 67 27 0.1 32.3
20:45 1018 30.06 847 25.01 19.4 66.9 28 0.3 32.6
20:50 1018 30.06 847 25.01 19.3 66.7 27 0.1 32.1
20:55 1017 30.03 847 25.01 19.3 66.7 26 -0.3 31.4
21:00 1018 30.06 847 25.01 19.2 66.5 28 0.5 33
21:05 1018 30.06 847 25.01 19 66.1 29 0.6 33.1
21:10 1018 30.06 847 25.01 18.7 65.7 29 0.6 33.2
21:15 1018 30.06 847 25.01 18.4 65.2 31 1.1 34
21:20 1018 30.06 847 25.01 17.9 64.3 32 1.3 34.4
21:25 1017 30.03 847 25.01 17.6 63.6 32 0.6 33.1
21:30 1017 30.03 847 25.01 17.6 63.6 32 0.8 33.5
21:35 1017 30.03 847 25.01 17.4 63.3 34 1.6 34.8
21:40 1017 30.03 846 24.98 17.3 63.2 32 0.6 33
21:45 1017 30.03 846 24.98 17.3 63.1 32 0.5 32.9
21:50 1017 30.03 846 24.98 17.4 63.2 34 1.4 34.6
21:55 1017 30.03 846 24.98 17.4 63.3 32 0.8 33.5
22:00 1017 30.03 846 24.98 17.2 63 35 1.8 35.2
22:05 1017 30.03 846 24.98 17.2 63 33 0.8 33.4
22:10 1017 30.03 846 24.98 17.1 62.8 33 1 33.8
22:15 1017 30.03 846 24.98 16.7 62.1 35 1.1 34
22:20 1017 30.03 846 24.98 16.2 61.2 37 1.6 35
22:25 1017 30.03 846 24.98 15.7 60.3 38 1.5 34.8
22:30 1017 30.03 846 24.98 15.7 60.3 37 1 33.8
22:35 1017 30.03 846 24.98 15.9 60.6 36 1 33.9
22:40 1017 30.03 846 24.98 15.9 60.6 35 0.7 33.2
22:45 1017 30.03 846 24.98 16.1 60.9 35 0.9 33.5
22:50 1017 30.03 846 24.98 16 60.9 35 0.8 33.4
22:55 1017 30.03 846 24.98 16 60.7 36 0.9 33.6
23:00 1017 30.03 846 24.98 15.8 60.4 36 1 33.8
23:05 1017 30.03 846 24.98 15.7 60.3 35 0.4 32.8
23:10 1017 30.03 846 24.98 15.7 60.2 36 0.9 33.7
23:15 1017 30.03 846 24.98 15.4 59.8 38 1.3 34.4
23:20 1017 30.03 846 24.98 15.2 59.3 38 1 33.7
23:25 1017 30.03 846 24.98 15.1 59.2 39 1.4 34.6
23:30 1017 30.03 846 24.98 14.9 58.8 38 0.8 33.4
23:35 1017 30.03 846 24.98 14.9 58.8 39 1.3 34.3
23:40 1017 30.03 846 24.98 14.7 58.4 40 1.4 34.5
23:45 1017 30.03 846 24.98 14.6 58.3 40 1.2 34.1
23:50 1017 30.03 846 24.98 14.5 58 41 1.4 34.6
23:55 1017 30.03 846 24.98 14.3 57.7 42 1.5 34.7
24:00 1017 30.03 846 24.98 14.3 57.8 41 1.4 34.4